Lubbock, TX

7:36 PM CDT on August 19, 2017 (GMT -0500)
AgriLife Vineyards | | Change Station

Elev 3281 ft 33.69 °N, 101.82 °W | Updated 5 seconds ago

Scattered Clouds
Scattered Clouds
84.6 °F
Feels Like 85 °F
N
5.6
Wind Variable Wind from SE
Gusts 8.0 mph

Today
High -- | Low -- °F
--% Chance of Precip.
Yesterday
High -- | Low -- °F
Precip. -- in
Pressure 29.84 in
Visibility 10.0 miles
Clouds Few 7000 ft
Scattered Clouds 14000 ft
Scattered Clouds 25000 ft
Heat Index 85 °F
Dew Point 63 °F
Humidity 48%
Rainfall 0.00 in
Snow Depth Not available.
7:12 AM 8:28 PM
Waning Crescent, 4% visible
METAR KLBB 192353Z 15011KT 10SM FEW070 SCT140 SCT250 32/13 A3000 RMK AO2 SLP103 CB DSNT SE AND SW MOV N SLO TCU DSNT N-NE AND E-S T03220133 10339 20311 55013
Pressure 29.84 in
Visibility 10.0 miles
Clouds Few 7000 ft
Scattered Clouds 14000 ft
Scattered Clouds 25000 ft
Heat Index 85 °F
Dew Point 63 °F
Humidity 48%
Rainfall 0.00 in
Snow Depth Not available.
7:12 AM 8:28 PM
Waning Crescent, 4% visible
METAR KLBB 192353Z 15011KT 10SM FEW070 SCT140 SCT250 32/13 A3000 RMK AO2 SLP103 CB DSNT SE AND SW MOV N SLO TCU DSNT N-NE AND E-S T03220133 10339 20311 55013

Get Severe Weather Alerts

Thanks for signing up!

Be on the lookout for a verification email in your inbox.

You'll start receiving the daily forecast at 6 AM.

×

10-Day Weather Forecast

Almanac

Astronomy

Aug. 19, 2017 Rise Set
Actual Time
Civil Twilight
Nautical Twilight
Astronomical Twilight
Moon
Length of Visible Light
Length of Day
Tomorrow will be .
, % of the Moon is Illuminated

Today's Extremes

State Highs State Lows

Community

WunderPhotos

Category 6

Welcome to Category 6. This is the collective home for Weather Underground's featured writeups by Dr. Jeff Masters (right), Bob Henson (left), Chris Burt, and other regular contributors.

Nearby

Air Quality

  Air Quality AQ Index Pollutant
Not available.

Snow Depth

Station Depth Elevation

Earthquake Activity

City Distance Mag. Time & Date
Minimum magnitude displayed is 2.5.

Coastal Water Temperatures

Place Temperature

Stations

Nearby Weather Stations

Station Location Temp. Windchill Dew Point Humidity Wind Precip. Elev Updated Type
                   

Watches & Warnings

There are currently no watches in effect.